sensor_id;sensor_type;location;lat;lon;timestamp;P1;durP1;ratioP1;P2;durP2;ratioP2
52104;SDS011;38103;42.776;23.112;2023-12-20T00:01:15;67.28;;;40.42;;
52104;SDS011;38103;42.776;23.112;2023-12-20T00:03:41;74.65;;;46.50;;
52104;SDS011;38103;42.776;23.112;2023-12-20T00:06:06;57.05;;;38.10;;
52104;SDS011;38103;42.776;23.112;2023-12-20T00:08:31;60.83;;;37.40;;
52104;SDS011;38103;42.776;23.112;2023-12-20T00:10:57;61.10;;;37.85;;
52104;SDS011;38103;42.776;23.112;2023-12-20T00:13:22;61.85;;;39.08;;
52104;SDS011;38103;42.776;23.112;2023-12-20T00:15:47;59.70;;;36.65;;
52104;SDS011;38103;42.776;23.112;2023-12-20T00:18:13;68.72;;;43.63;;
52104;SDS011;38103;42.776;23.112;2023-12-20T00:20:38;69.45;;;38.35;;
52104;SDS011;38103;42.776;23.112;2023-12-20T00:23:04;67.30;;;40.65;;
52104;SDS011;38103;42.776;23.112;2023-12-20T00:25:29;68.43;;;41.88;;
52104;SDS011;38103;42.776;23.112;2023-12-20T00:27:54;82.05;;;48.00;;
52104;SDS011;38103;42.776;23.112;2023-12-20T00:30:20;77.80;;;46.90;;
52104;SDS011;38103;42.776;23.112;2023-12-20T00:32:45;76.72;;;44.47;;
52104;SDS011;38103;42.776;23.112;2023-12-20T00:35:14;66.93;;;42.40;;
52104;SDS011;38103;42.776;23.112;2023-12-20T00:37:39;66.20;;;42.10;;
52104;SDS011;38103;42.776;23.112;2023-12-20T00:40:05;61.83;;;38.28;;
52104;SDS011;38103;42.776;23.112;2023-12-20T00:42:31;58.63;;;35.58;;
52104;SDS011;38103;42.776;23.112;2023-12-20T00:44:56;46.17;;;29.20;;
52104;SDS011;38103;42.776;23.112;2023-12-20T00:47:22;48.30;;;30.05;;
52104;SDS011;38103;42.776;23.112;2023-12-20T00:49:47;39.58;;;23.77;;
52104;SDS011;38103;42.776;23.112;2023-12-20T00:52:13;40.28;;;21.88;;
52104;SDS011;38103;42.776;23.112;2023-12-20T00:54:39;38.35;;;23.40;;
52104;SDS011;38103;42.776;23.112;2023-12-20T00:57:04;34.60;;;20.98;;
52104;SDS011;38103;42.776;23.112;2023-12-20T00:59:29;36.15;;;21.02;;
52104;SDS011;38103;42.776;23.112;2023-12-20T01:01:55;37.15;;;20.75;;
52104;SDS011;38103;42.776;23.112;2023-12-20T01:04:20;33.47;;;20.10;;
52104;SDS011;38103;42.776;23.112;2023-12-20T01:06:46;39.50;;;20.83;;
52104;SDS011;38103;42.776;23.112;2023-12-20T01:09:11;35.28;;;20.75;;
52104;SDS011;38103;42.776;23.112;2023-12-20T01:11:37;36.90;;;22.50;;
52104;SDS011;38103;42.776;23.112;2023-12-20T01:14:02;37.75;;;22.30;;
52104;SDS011;38103;42.776;23.112;2023-12-20T01:16:27;36.25;;;23.50;;
52104;SDS011;38103;42.776;23.112;2023-12-20T01:18:53;36.88;;;22.50;;
52104;SDS011;38103;42.776;23.112;2023-12-20T01:21:18;38.97;;;22.33;;
52104;SDS011;38103;42.776;23.112;2023-12-20T01:23:43;36.72;;;22.70;;
52104;SDS011;38103;42.776;23.112;2023-12-20T01:26:09;39.78;;;24.90;;
52104;SDS011;38103;42.776;23.112;2023-12-20T01:28:34;45.25;;;25.83;;
52104;SDS011;38103;42.776;23.112;2023-12-20T01:30:59;50.17;;;28.40;;
52104;SDS011;38103;42.776;23.112;2023-12-20T01:33:25;48.33;;;29.23;;
52104;SDS011;38103;42.776;23.112;2023-12-20T01:35:50;45.03;;;26.90;;
52104;SDS011;38103;42.776;23.112;2023-12-20T01:38:15;44.90;;;28.35;;
52104;SDS011;38103;42.776;23.112;2023-12-20T01:40:43;45.15;;;28.17;;
52104;SDS011;38103;42.776;23.112;2023-12-20T01:43:09;51.60;;;31.67;;
52104;SDS011;38103;42.776;23.112;2023-12-20T01:45:36;54.15;;;33.10;;
52104;SDS011;38103;42.776;23.112;2023-12-20T01:48:02;50.90;;;32.78;;
52104;SDS011;38103;42.776;23.112;2023-12-20T01:50:29;49.85;;;32.88;;
52104;SDS011;38103;42.776;23.112;2023-12-20T01:52:56;68.95;;;41.78;;
52104;SDS011;38103;42.776;23.112;2023-12-20T01:55:25;102.65;;;65.63;;
52104;SDS011;38103;42.776;23.112;2023-12-20T01:57:54;52.42;;;33.25;;
52104;SDS011;38103;42.776;23.112;2023-12-20T02:00:21;44.97;;;30.40;;
52104;SDS011;38103;42.776;23.112;2023-12-20T02:02:48;52.05;;;32.47;;
52104;SDS011;38103;42.776;23.112;2023-12-20T02:05:15;54.28;;;31.10;;
52104;SDS011;38103;42.776;23.112;2023-12-20T02:07:41;49.47;;;31.05;;
52104;SDS011;38103;42.776;23.112;2023-12-20T02:10:07;50.85;;;30.70;;
52104;SDS011;38103;42.776;23.112;2023-12-20T02:12:32;56.80;;;32.35;;
52104;SDS011;38103;42.776;23.112;2023-12-20T02:14:58;52.67;;;33.00;;
52104;SDS011;38103;42.776;23.112;2023-12-20T02:17:23;50.10;;;30.95;;
52104;SDS011;38103;42.776;23.112;2023-12-20T02:19:49;48.70;;;31.63;;
52104;SDS011;38103;42.776;23.112;2023-12-20T02:22:15;58.08;;;34.63;;
52104;SDS011;38103;42.776;23.112;2023-12-20T02:24:40;53.08;;;33.25;;
52104;SDS011;38103;42.776;23.112;2023-12-20T02:27:06;51.10;;;32.50;;
52104;SDS011;38103;42.776;23.112;2023-12-20T02:29:33;55.60;;;31.98;;
52104;SDS011;38103;42.776;23.112;2023-12-20T02:31:58;50.97;;;31.63;;
52104;SDS011;38103;42.776;23.112;2023-12-20T02:34:24;53.40;;;31.70;;
52104;SDS011;38103;42.776;23.112;2023-12-20T02:36:49;48.40;;;27.77;;
52104;SDS011;38103;42.776;23.112;2023-12-20T02:39:14;53.58;;;31.67;;
52104;SDS011;38103;42.776;23.112;2023-12-20T02:41:40;49.53;;;29.60;;
52104;SDS011;38103;42.776;23.112;2023-12-20T02:44:05;68.93;;;41.45;;
52104;SDS011;38103;42.776;23.112;2023-12-20T02:46:31;74.13;;;42.60;;
52104;SDS011;38103;42.776;23.112;2023-12-20T02:48:56;85.25;;;45.63;;
52104;SDS011;38103;42.776;23.112;2023-12-20T02:51:21;64.43;;;38.28;;
52104;SDS011;38103;42.776;23.112;2023-12-20T02:53:47;60.67;;;39.05;;
52104;SDS011;38103;42.776;23.112;2023-12-20T02:56:12;63.10;;;36.97;;
52104;SDS011;38103;42.776;23.112;2023-12-20T02:58:39;56.22;;;34.28;;
52104;SDS011;38103;42.776;23.112;2023-12-20T03:01:05;60.00;;;36.25;;
52104;SDS011;38103;42.776;23.112;2023-12-20T03:03:30;58.97;;;37.00;;
52104;SDS011;38103;42.776;23.112;2023-12-20T03:05:56;60.90;;;35.83;;
52104;SDS011;38103;42.776;23.112;2023-12-20T03:08:22;46.33;;;27.33;;
52104;SDS011;38103;42.776;23.112;2023-12-20T03:10:47;40.72;;;24.67;;
52104;SDS011;38103;42.776;23.112;2023-12-20T03:13:12;44.13;;;25.20;;
52104;SDS011;38103;42.776;23.112;2023-12-20T03:15:38;44.78;;;26.15;;
52104;SDS011;38103;42.776;23.112;2023-12-20T03:18:03;37.58;;;22.58;;
52104;SDS011;38103;42.776;23.112;2023-12-20T03:20:29;38.03;;;23.13;;
52104;SDS011;38103;42.776;23.112;2023-12-20T03:22:58;41.20;;;22.40;;
52104;SDS011;38103;42.776;23.112;2023-12-20T03:25:23;38.03;;;23.85;;
52104;SDS011;38103;42.776;23.112;2023-12-20T03:27:48;44.63;;;28.67;;
52104;SDS011;38103;42.776;23.112;2023-12-20T03:30:14;46.03;;;28.10;;
52104;SDS011;38103;42.776;23.112;2023-12-20T03:32:39;44.25;;;25.42;;
52104;SDS011;38103;42.776;23.112;2023-12-20T03:35:05;48.63;;;27.45;;
52104;SDS011;38103;42.776;23.112;2023-12-20T03:37:31;42.17;;;24.40;;
52104;SDS011;38103;42.776;23.112;2023-12-20T03:39:56;43.58;;;24.20;;
52104;SDS011;38103;42.776;23.112;2023-12-20T03:42:21;44.45;;;25.25;;
52104;SDS011;38103;42.776;23.112;2023-12-20T03:44:47;78.70;;;44.42;;
52104;SDS011;38103;42.776;23.112;2023-12-20T03:47:12;45.47;;;28.83;;
52104;SDS011;38103;42.776;23.112;2023-12-20T03:49:37;47.00;;;26.08;;
52104;SDS011;38103;42.776;23.112;2023-12-20T03:52:03;75.30;;;59.13;;
52104;SDS011;38103;42.776;23.112;2023-12-20T03:54:29;50.45;;;32.08;;
52104;SDS011;38103;42.776;23.112;2023-12-20T03:56:55;43.67;;;28.33;;
52104;SDS011;38103;42.776;23.112;2023-12-20T03:59:20;59.13;;;35.55;;
52104;SDS011;38103;42.776;23.112;2023-12-20T04:01:45;50.42;;;32.35;;
52104;SDS011;38103;42.776;23.112;2023-12-20T04:04:13;54.72;;;32.17;;
52104;SDS011;38103;42.776;23.112;2023-12-20T04:06:38;52.97;;;33.42;;
52104;SDS011;38103;42.776;23.112;2023-12-20T04:09:04;72.00;;;39.40;;
52104;SDS011;38103;42.776;23.112;2023-12-20T04:11:29;94.80;;;48.55;;
52104;SDS011;38103;42.776;23.112;2023-12-20T04:13:55;111.20;;;64.70;;
52104;SDS011;38103;42.776;23.112;2023-12-20T04:16:20;103.35;;;59.45;;
52104;SDS011;38103;42.776;23.112;2023-12-20T04:18:46;175.73;;;57.45;;
52104;SDS011;38103;42.776;23.112;2023-12-20T04:21:11;474.88;;;66.72;;
52104;SDS011;38103;42.776;23.112;2023-12-20T04:23:36;471.65;;;80.65;;
52104;SDS011;38103;42.776;23.112;2023-12-20T04:26:02;551.08;;;69.13;;
52104;SDS011;38103;42.776;23.112;2023-12-20T04:28:27;544.72;;;73.57;;
52104;SDS011;38103;42.776;23.112;2023-12-20T04:30:55;531.58;;;80.32;;
52104;SDS011;38103;42.776;23.112;2023-12-20T04:33:21;355.58;;;69.45;;
52104;SDS011;38103;42.776;23.112;2023-12-20T04:35:46;288.15;;;70.28;;
52104;SDS011;38103;42.776;23.112;2023-12-20T04:38:11;330.80;;;64.93;;
52104;SDS011;38103;42.776;23.112;2023-12-20T04:40:37;252.43;;;61.28;;
52104;SDS011;38103;42.776;23.112;2023-12-20T04:43:02;211.80;;;60.28;;
52104;SDS011;38103;42.776;23.112;2023-12-20T04:45:28;113.07;;;58.13;;
52104;SDS011;38103;42.776;23.112;2023-12-20T04:47:54;100.85;;;53.35;;
52104;SDS011;38103;42.776;23.112;2023-12-20T04:50:20;94.80;;;49.83;;
52104;SDS011;38103;42.776;23.112;2023-12-20T04:52:46;64.13;;;37.55;;
52104;SDS011;38103;42.776;23.112;2023-12-20T04:55:12;64.43;;;41.15;;
52104;SDS011;38103;42.776;23.112;2023-12-20T04:57:37;71.88;;;42.67;;
52104;SDS011;38103;42.776;23.112;2023-12-20T05:00:03;64.47;;;40.78;;
52104;SDS011;38103;42.776;23.112;2023-12-20T05:02:29;70.38;;;41.55;;
52104;SDS011;38103;42.776;23.112;2023-12-20T05:04:55;64.63;;;40.03;;
52104;SDS011;38103;42.776;23.112;2023-12-20T05:07:20;64.47;;;37.80;;
52104;SDS011;38103;42.776;23.112;2023-12-20T05:09:45;66.80;;;39.33;;
52104;SDS011;38103;42.776;23.112;2023-12-20T05:12:11;61.90;;;39.25;;
52104;SDS011;38103;42.776;23.112;2023-12-20T05:14:36;61.97;;;37.97;;
52104;SDS011;38103;42.776;23.112;2023-12-20T05:17:02;67.75;;;40.28;;
52104;SDS011;38103;42.776;23.112;2023-12-20T05:19:28;70.80;;;42.60;;
52104;SDS011;38103;42.776;23.112;2023-12-20T05:21:53;72.05;;;47.15;;
52104;SDS011;38103;42.776;23.112;2023-12-20T05:24:19;73.50;;;44.63;;
52104;SDS011;38103;42.776;23.112;2023-12-20T05:26:44;67.25;;;43.10;;
52104;SDS011;38103;42.776;23.112;2023-12-20T05:29:09;87.35;;;47.08;;
52104;SDS011;38103;42.776;23.112;2023-12-20T05:31:35;76.25;;;44.60;;
52104;SDS011;38103;42.776;23.112;2023-12-20T05:34:00;123.22;;;48.22;;
52104;SDS011;38103;42.776;23.112;2023-12-20T05:36:25;535.95;;;53.92;;
52104;SDS011;38103;42.776;23.112;2023-12-20T05:38:51;292.75;;;48.60;;
52104;SDS011;38103;42.776;23.112;2023-12-20T05:41:16;207.73;;;49.55;;
52104;SDS011;38103;42.776;23.112;2023-12-20T05:43:41;443.83;;;51.13;;
52104;SDS011;38103;42.776;23.112;2023-12-20T05:46:07;316.65;;;46.85;;
52104;SDS011;38103;42.776;23.112;2023-12-20T05:48:35;246.05;;;47.55;;
52104;SDS011;38103;42.776;23.112;2023-12-20T05:51:00;238.65;;;48.67;;
52104;SDS011;38103;42.776;23.112;2023-12-20T05:53:26;333.80;;;54.08;;
52104;SDS011;38103;42.776;23.112;2023-12-20T05:55:51;169.52;;;47.65;;
52104;SDS011;38103;42.776;23.112;2023-12-20T05:58:16;435.17;;;59.45;;
52104;SDS011;38103;42.776;23.112;2023-12-20T06:00:42;311.52;;;56.38;;
52104;SDS011;38103;42.776;23.112;2023-12-20T06:03:07;222.75;;;57.70;;
52104;SDS011;38103;42.776;23.112;2023-12-20T06:05:32;245.07;;;55.50;;
52104;SDS011;38103;42.776;23.112;2023-12-20T06:07:58;145.18;;;54.80;;
52104;SDS011;38103;42.776;23.112;2023-12-20T06:10:26;182.80;;;60.08;;
52104;SDS011;38103;42.776;23.112;2023-12-20T06:12:52;184.85;;;61.25;;
52104;SDS011;38103;42.776;23.112;2023-12-20T06:15:17;131.18;;;51.30;;
52104;SDS011;38103;42.776;23.112;2023-12-20T06:17:43;522.63;;;75.65;;
52104;SDS011;38103;42.776;23.112;2023-12-20T06:20:09;457.30;;;70.18;;
52104;SDS011;38103;42.776;23.112;2023-12-20T06:22:35;421.63;;;84.38;;
52104;SDS011;38103;42.776;23.112;2023-12-20T06:25:01;271.02;;;77.28;;
52104;SDS011;38103;42.776;23.112;2023-12-20T06:27:28;397.60;;;72.30;;
52104;SDS011;38103;42.776;23.112;2023-12-20T06:29:53;359.40;;;73.32;;
52104;SDS011;38103;42.776;23.112;2023-12-20T06:32:19;580.13;;;87.63;;
52104;SDS011;38103;42.776;23.112;2023-12-20T06:34:44;373.48;;;69.93;;
52104;SDS011;38103;42.776;23.112;2023-12-20T06:37:09;368.00;;;70.68;;
52104;SDS011;38103;42.776;23.112;2023-12-20T06:39:35;260.45;;;62.92;;
52104;SDS011;38103;42.776;23.112;2023-12-20T06:42:00;278.65;;;61.40;;
52104;SDS011;38103;42.776;23.112;2023-12-20T06:44:26;332.17;;;57.28;;
52104;SDS011;38103;42.776;23.112;2023-12-20T06:46:51;291.45;;;63.78;;
52104;SDS011;38103;42.776;23.112;2023-12-20T06:49:17;304.48;;;69.85;;
52104;SDS011;38103;42.776;23.112;2023-12-20T06:51:43;245.00;;;71.25;;
52104;SDS011;38103;42.776;23.112;2023-12-20T06:54:09;249.52;;;64.93;;
52104;SDS011;38103;42.776;23.112;2023-12-20T06:56:34;147.02;;;57.17;;
52104;SDS011;38103;42.776;23.112;2023-12-20T06:58:59;170.10;;;64.10;;
52104;SDS011;38103;42.776;23.112;2023-12-20T07:01:25;147.75;;;61.03;;
52104;SDS011;38103;42.776;23.112;2023-12-20T07:03:50;138.27;;;59.25;;
52104;SDS011;38103;42.776;23.112;2023-12-20T07:06:16;126.57;;;57.85;;
52104;SDS011;38103;42.776;23.112;2023-12-20T07:08:42;146.30;;;59.10;;
52104;SDS011;38103;42.776;23.112;2023-12-20T07:11:07;125.10;;;52.20;;
52104;SDS011;38103;42.776;23.112;2023-12-20T07:13:33;126.65;;;54.15;;
52104;SDS011;38103;42.776;23.112;2023-12-20T07:15:58;134.52;;;58.15;;
52104;SDS011;38103;42.776;23.112;2023-12-20T07:18:24;219.40;;;85.82;;
52104;SDS011;38103;42.776;23.112;2023-12-20T07:20:49;200.88;;;71.80;;
52104;SDS011;38103;42.776;23.112;2023-12-20T07:23:15;205.00;;;73.53;;
52104;SDS011;38103;42.776;23.112;2023-12-20T07:25:40;193.20;;;58.42;;
52104;SDS011;38103;42.776;23.112;2023-12-20T07:28:05;200.18;;;82.57;;
52104;SDS011;38103;42.776;23.112;2023-12-20T07:30:31;166.82;;;67.80;;
52104;SDS011;38103;42.776;23.112;2023-12-20T07:32:56;160.80;;;74.85;;
52104;SDS011;38103;42.776;23.112;2023-12-20T07:35:23;190.50;;;90.00;;
52104;SDS011;38103;42.776;23.112;2023-12-20T07:37:48;195.77;;;77.30;;
52104;SDS011;38103;42.776;23.112;2023-12-20T07:40:14;148.77;;;62.08;;
52104;SDS011;38103;42.776;23.112;2023-12-20T07:42:42;170.93;;;55.22;;
52104;SDS011;38103;42.776;23.112;2023-12-20T07:45:07;331.40;;;60.70;;
52104;SDS011;38103;42.776;23.112;2023-12-20T07:47:34;281.38;;;67.47;;
52104;SDS011;38103;42.776;23.112;2023-12-20T07:49:59;323.02;;;69.47;;
52104;SDS011;38103;42.776;23.112;2023-12-20T07:52:25;467.67;;;88.97;;
52104;SDS011;38103;42.776;23.112;2023-12-20T07:54:51;430.58;;;81.25;;
52104;SDS011;38103;42.776;23.112;2023-12-20T07:57:16;383.40;;;91.43;;
52104;SDS011;38103;42.776;23.112;2023-12-20T07:59:42;493.90;;;88.72;;
52104;SDS011;38103;42.776;23.112;2023-12-20T08:02:09;414.02;;;92.10;;
52104;SDS011;38103;42.776;23.112;2023-12-20T08:04:34;300.45;;;83.78;;
52104;SDS011;38103;42.776;23.112;2023-12-20T08:07:00;464.55;;;82.38;;
52104;SDS011;38103;42.776;23.112;2023-12-20T08:09:25;336.60;;;68.30;;
52104;SDS011;38103;42.776;23.112;2023-12-20T08:11:51;369.52;;;73.00;;
52104;SDS011;38103;42.776;23.112;2023-12-20T08:14:16;316.63;;;56.35;;
52104;SDS011;38103;42.776;23.112;2023-12-20T08:16:41;374.52;;;59.97;;
52104;SDS011;38103;42.776;23.112;2023-12-20T08:19:07;287.20;;;55.80;;
52104;SDS011;38103;42.776;23.112;2023-12-20T08:21:32;358.77;;;58.10;;
52104;SDS011;38103;42.776;23.112;2023-12-20T08:23:58;302.73;;;56.92;;
52104;SDS011;38103;42.776;23.112;2023-12-20T08:26:25;260.17;;;47.95;;
52104;SDS011;38103;42.776;23.112;2023-12-20T08:28:51;206.60;;;40.15;;
52104;SDS011;38103;42.776;23.112;2023-12-20T08:31:16;160.30;;;38.35;;
52104;SDS011;38103;42.776;23.112;2023-12-20T08:33:46;93.95;;;34.90;;
52104;SDS011;38103;42.776;23.112;2023-12-20T08:36:13;119.97;;;34.78;;
52104;SDS011;38103;42.776;23.112;2023-12-20T08:38:38;174.07;;;37.05;;
52104;SDS011;38103;42.776;23.112;2023-12-20T08:41:04;113.25;;;33.88;;
52104;SDS011;38103;42.776;23.112;2023-12-20T08:43:33;66.85;;;34.28;;
52104;SDS011;38103;42.776;23.112;2023-12-20T08:46:00;102.97;;;47.03;;
52104;SDS011;38103;42.776;23.112;2023-12-20T08:48:25;282.70;;;100.07;;
52104;SDS011;38103;42.776;23.112;2023-12-20T08:50:50;115.30;;;38.05;;
52104;SDS011;38103;42.776;23.112;2023-12-20T08:53:17;258.08;;;41.25;;
52104;SDS011;38103;42.776;23.112;2023-12-20T08:55:43;104.68;;;37.25;;
52104;SDS011;38103;42.776;23.112;2023-12-20T08:58:09;212.55;;;38.85;;
52104;SDS011;38103;42.776;23.112;2023-12-20T09:00:34;178.75;;;35.30;;
52104;SDS011;38103;42.776;23.112;2023-12-20T09:03:01;117.38;;;32.60;;
52104;SDS011;38103;42.776;23.112;2023-12-20T09:05:27;113.05;;;35.50;;
52104;SDS011;38103;42.776;23.112;2023-12-20T09:07:52;98.03;;;33.95;;
52104;SDS011;38103;42.776;23.112;2023-12-20T09:10:18;111.53;;;41.03;;
52104;SDS011;38103;42.776;23.112;2023-12-20T09:12:53;177.30;;;34.60;;
52104;SDS011;38103;42.776;23.112;2023-12-20T09:15:25;156.82;;;31.13;;
52104;SDS011;38103;42.776;23.112;2023-12-20T09:17:52;204.48;;;33.80;;
52104;SDS011;38103;42.776;23.112;2023-12-20T09:20:17;139.48;;;32.75;;
52104;SDS011;38103;42.776;23.112;2023-12-20T09:22:43;127.53;;;33.92;;
52104;SDS011;38103;42.776;23.112;2023-12-20T09:25:11;169.63;;;46.92;;
52104;SDS011;38103;42.776;23.112;2023-12-20T09:27:38;275.70;;;46.17;;
52104;SDS011;38103;42.776;23.112;2023-12-20T09:30:04;192.77;;;70.22;;
52104;SDS011;38103;42.776;23.112;2023-12-20T09:32:30;307.33;;;158.68;;
52104;SDS011;38103;42.776;23.112;2023-12-20T09:34:56;180.32;;;95.82;;
52104;SDS011;38103;42.776;23.112;2023-12-20T09:37:21;167.32;;;55.85;;
52104;SDS011;38103;42.776;23.112;2023-12-20T09:39:46;140.98;;;64.10;;
52104;SDS011;38103;42.776;23.112;2023-12-20T09:42:12;156.90;;;60.10;;
52104;SDS011;38103;42.776;23.112;2023-12-20T09:44:46;137.98;;;66.70;;
52104;SDS011;38103;42.776;23.112;2023-12-20T09:47:12;130.00;;;58.65;;
52104;SDS011;38103;42.776;23.112;2023-12-20T09:49:40;222.40;;;90.00;;
52104;SDS011;38103;42.776;23.112;2023-12-20T09:52:08;176.07;;;77.55;;
52104;SDS011;38103;42.776;23.112;2023-12-20T09:54:34;755.67;;;380.20;;
52104;SDS011;38103;42.776;23.112;2023-12-20T09:57:00;377.75;;;166.02;;
52104;SDS011;38103;42.776;23.112;2023-12-20T09:59:25;179.60;;;78.95;;
52104;SDS011;38103;42.776;23.112;2023-12-20T10:01:50;120.55;;;56.25;;
52104;SDS011;38103;42.776;23.112;2023-12-20T10:04:20;113.38;;;60.88;;
52104;SDS011;38103;42.776;23.112;2023-12-20T10:06:46;106.03;;;53.92;;
52104;SDS011;38103;42.776;23.112;2023-12-20T10:09:11;93.88;;;47.67;;
52104;SDS011;38103;42.776;23.112;2023-12-20T10:11:37;93.03;;;47.83;;
52104;SDS011;38103;42.776;23.112;2023-12-20T10:14:04;88.68;;;46.67;;
52104;SDS011;38103;42.776;23.112;2023-12-20T10:16:31;281.98;;;123.30;;
52104;SDS011;38103;42.776;23.112;2023-12-20T10:18:58;113.35;;;61.83;;
52104;SDS011;38103;42.776;23.112;2023-12-20T10:21:24;155.63;;;78.65;;
52104;SDS011;38103;42.776;23.112;2023-12-20T10:23:54;111.85;;;57.95;;
52104;SDS011;38103;42.776;23.112;2023-12-20T10:26:24;86.30;;;48.83;;
52104;SDS011;38103;42.776;23.112;2023-12-20T10:28:59;133.10;;;79.72;;
52104;SDS011;38103;42.776;23.112;2023-12-20T10:31:29;80.10;;;45.65;;
52104;SDS011;38103;42.776;23.112;2023-12-20T10:33:56;85.97;;;52.17;;
52104;SDS011;38103;42.776;23.112;2023-12-20T10:36:28;82.25;;;50.00;;
52104;SDS011;38103;42.776;23.112;2023-12-20T10:38:56;81.60;;;46.95;;
52104;SDS011;38103;42.776;23.112;2023-12-20T10:41:24;92.32;;;50.63;;
52104;SDS011;38103;42.776;23.112;2023-12-20T10:43:58;91.25;;;49.80;;
52104;SDS011;38103;42.776;23.112;2023-12-20T10:46:29;90.43;;;48.03;;
52104;SDS011;38103;42.776;23.112;2023-12-20T10:48:55;90.13;;;49.47;;
52104;SDS011;38103;42.776;23.112;2023-12-20T10:51:22;95.75;;;46.50;;
52104;SDS011;38103;42.776;23.112;2023-12-20T10:53:49;110.82;;;47.63;;
52104;SDS011;38103;42.776;23.112;2023-12-20T10:56:16;85.57;;;45.80;;
52104;SDS011;38103;42.776;23.112;2023-12-20T10:58:49;141.63;;;51.38;;
52104;SDS011;38103;42.776;23.112;2023-12-20T11:01:15;99.28;;;50.58;;
52104;SDS011;38103;42.776;23.112;2023-12-20T11:03:45;136.10;;;62.47;;
52104;SDS011;38103;42.776;23.112;2023-12-20T11:06:27;101.85;;;52.88;;
52104;SDS011;38103;42.776;23.112;2023-12-20T11:09:10;176.73;;;65.13;;
52104;SDS011;38103;42.776;23.112;2023-12-20T11:11:51;130.43;;;60.20;;
52104;SDS011;38103;42.776;23.112;2023-12-20T11:17:11;174.55;;;60.35;;
52104;SDS011;38103;42.776;23.112;2023-12-20T11:22:21;149.10;;;52.17;;
52104;SDS011;38103;42.776;23.112;2023-12-20T11:24:47;130.63;;;54.60;;
52104;SDS011;38103;42.776;23.112;2023-12-20T11:27:13;227.32;;;53.10;;
52104;SDS011;38103;42.776;23.112;2023-12-20T11:29:39;248.00;;;51.40;;
52104;SDS011;38103;42.776;23.112;2023-12-20T11:34:59;212.68;;;49.60;;
52104;SDS011;38103;42.776;23.112;2023-12-20T11:37:45;88.97;;;46.75;;
52104;SDS011;38103;42.776;23.112;2023-12-20T11:40:15;78.30;;;45.97;;
52104;SDS011;38103;42.776;23.112;2023-12-20T11:42:42;84.43;;;51.08;;
52104;SDS011;38103;42.776;23.112;2023-12-20T11:45:14;237.32;;;117.38;;
52104;SDS011;38103;42.776;23.112;2023-12-20T11:47:46;148.90;;;75.05;;
52104;SDS011;38103;42.776;23.112;2023-12-20T11:50:16;95.60;;;52.55;;
52104;SDS011;38103;42.776;23.112;2023-12-20T11:52:45;86.70;;;52.92;;
52104;SDS011;38103;42.776;23.112;2023-12-20T11:55:10;75.18;;;46.78;;
52104;SDS011;38103;42.776;23.112;2023-12-20T11:57:36;59.00;;;37.45;;
52104;SDS011;38103;42.776;23.112;2023-12-20T12:00:03;55.88;;;36.58;;
52104;SDS011;38103;42.776;23.112;2023-12-20T12:02:30;60.78;;;35.75;;
52104;SDS011;38103;42.776;23.112;2023-12-20T12:04:55;97.60;;;55.88;;
52104;SDS011;38103;42.776;23.112;2023-12-20T12:07:21;81.78;;;51.50;;
52104;SDS011;38103;42.776;23.112;2023-12-20T12:09:47;54.67;;;36.38;;
52104;SDS011;38103;42.776;23.112;2023-12-20T12:12:13;59.72;;;37.72;;
52104;SDS011;38103;42.776;23.112;2023-12-20T12:14:39;148.82;;;79.47;;
52104;SDS011;38103;42.776;23.112;2023-12-20T12:17:14;159.82;;;78.35;;
52104;SDS011;38103;42.776;23.112;2023-12-20T12:19:40;289.92;;;130.32;;
52104;SDS011;38103;42.776;23.112;2023-12-20T12:22:10;188.27;;;97.20;;
52104;SDS011;38103;42.776;23.112;2023-12-20T12:24:45;277.27;;;123.43;;
52104;SDS011;38103;42.776;23.112;2023-12-20T12:44:09;83.60;;;52.63;;
52104;SDS011;38103;42.776;23.112;2023-12-20T12:46:34;117.40;;;60.25;;
52104;SDS011;38103;42.776;23.112;2023-12-20T12:49:00;389.83;;;50.67;;
52104;SDS011;38103;42.776;23.112;2023-12-20T12:51:25;103.43;;;49.10;;
52104;SDS011;38103;42.776;23.112;2023-12-20T12:53:51;225.73;;;48.92;;
52104;SDS011;38103;42.776;23.112;2023-12-20T12:56:16;91.65;;;48.80;;
52104;SDS011;38103;42.776;23.112;2023-12-20T12:58:42;87.75;;;50.13;;
52104;SDS011;38103;42.776;23.112;2023-12-20T13:01:08;95.55;;;54.45;;
52104;SDS011;38103;42.776;23.112;2023-12-20T13:03:33;90.32;;;53.15;;
52104;SDS011;38103;42.776;23.112;2023-12-20T13:05:59;97.57;;;57.35;;
52104;SDS011;38103;42.776;23.112;2023-12-20T13:08:25;92.65;;;55.90;;
52104;SDS011;38103;42.776;23.112;2023-12-20T13:10:50;81.50;;;50.65;;
52104;SDS011;38103;42.776;23.112;2023-12-20T13:13:16;102.53;;;56.72;;
52104;SDS011;38103;42.776;23.112;2023-12-20T13:15:41;92.40;;;53.83;;
52104;SDS011;38103;42.776;23.112;2023-12-20T13:18:07;93.38;;;53.72;;
52104;SDS011;38103;42.776;23.112;2023-12-20T13:20:32;181.00;;;61.85;;
52104;SDS011;38103;42.776;23.112;2023-12-20T13:22:58;435.70;;;67.55;;
52104;SDS011;38103;42.776;23.112;2023-12-20T13:25:24;526.35;;;66.88;;
52104;SDS011;38103;42.776;23.112;2023-12-20T13:27:49;289.15;;;70.93;;
52104;SDS011;38103;42.776;23.112;2023-12-20T13:30:16;519.03;;;68.63;;
52104;SDS011;38103;42.776;23.112;2023-12-20T13:32:42;409.83;;;63.55;;
52104;SDS011;38103;42.776;23.112;2023-12-20T13:35:07;399.20;;;66.90;;
52104;SDS011;38103;42.776;23.112;2023-12-20T13:37:33;249.15;;;64.78;;
52104;SDS011;38103;42.776;23.112;2023-12-20T13:40:00;226.68;;;72.07;;
52104;SDS011;38103;42.776;23.112;2023-12-20T13:42:26;178.85;;;65.15;;
52104;SDS011;38103;42.776;23.112;2023-12-20T13:44:52;164.45;;;63.97;;
52104;SDS011;38103;42.776;23.112;2023-12-20T13:47:18;146.45;;;64.60;;
52104;SDS011;38103;42.776;23.112;2023-12-20T13:49:44;281.73;;;77.07;;
52104;SDS011;38103;42.776;23.112;2023-12-20T13:52:10;339.27;;;82.63;;
52104;SDS011;38103;42.776;23.112;2023-12-20T13:54:36;230.95;;;75.38;;
52104;SDS011;38103;42.776;23.112;2023-12-20T13:57:01;373.38;;;83.38;;
52104;SDS011;38103;42.776;23.112;2023-12-20T13:59:28;625.90;;;91.25;;
52104;SDS011;38103;42.776;23.112;2023-12-20T14:01:53;699.38;;;93.47;;
52104;SDS011;38103;42.776;23.112;2023-12-20T14:04:19;448.75;;;81.80;;
52104;SDS011;38103;42.776;23.112;2023-12-20T14:06:45;446.58;;;79.43;;
52104;SDS011;38103;42.776;23.112;2023-12-20T14:09:10;467.33;;;82.95;;
52104;SDS011;38103;42.776;23.112;2023-12-20T14:11:37;474.92;;;83.22;;
52104;SDS011;38103;42.776;23.112;2023-12-20T14:14:06;355.35;;;76.00;;
52104;SDS011;38103;42.776;23.112;2023-12-20T14:16:32;360.55;;;73.32;;
52104;SDS011;38103;42.776;23.112;2023-12-20T14:18:58;270.83;;;67.28;;
52104;SDS011;38103;42.776;23.112;2023-12-20T14:21:23;242.65;;;63.55;;